KRYW

Lago Vista Tx - Rusty Allen Airport

Lago Vista, Texas, USA
METAR KRYW 252215Z AUTO 13004KT 10SM CLR 34/18 A2991 RMK AO2 T03380177
Observed Flight Rules
May-25 @ 22:15 UTC (8 minutes ago) Visual Flight Rules
Wind Visibility Clouds
130° at 4 knots 10 miles
  • Clear skies
Temperatures Readings
Current 34°C / 93°F
Dewpoint 18°C / 64°F
Humidity 39%
Altimeter 29.91" Hg
Pressure 1013 hPa
Elevation 376
METAR KRYW 252215Z AUTO 13004KT 10SM CLR 34/18 A2991 RMK AO2 T03380177
Observed Flight Rules
May-25 @ 22:15 UTC
(8 minutes ago)
VFR
Wind Visibility
130° at 4 knots 10 miles
Clouds
  • Clear skies
Temperature Dewpoint
34°C / 93°F 18°C / 64°F
Humidity Altimeter Pressure
39% 29.91" Hg 1013 hPa